San Antonio, TX

5:18 AM CDT en Octubre 24, 2014 (GMT -0500)
Castle Hills | Change Station
CLOSE
Current Station
Estación meteorológica personal
Location: San Antonio, TX
Altura: 869 ft
Estaciones meteorológicas cercanas

Alt 869 ft 29.53 °N, 98.52 °W | Updated 5 minutes ago

Despejado
Despejado
59.0 ° F
Sensación térmica 59.0 ° F
N
0.0
Viento Variable Viento desde NNO

Hoy
Alta -- | Baja -- ° F
--% Posibilidad de precipitaciones
Ayer
Alta -- | Baja -- ° F
Precip. -- pul
7:41 AM 6:54 PM
Luna nueva, 0% visible
Presión 30.08 pul
Visibilidad 10.0 Millas
Nubes Despejado
Punto de rocío 57 ° F
Humedad 94%
Precipitaciones 0.00 pul
Espesor de la nieve No disponible.
UV 0 de una escala de 12
Polen 5.70 de una escala de 12
Ozono Buena
PM2.5 Moderada
Flu Activity Sporadic
METAR KSAT 240951Z 30003KT 10SM CLR 17/14 A3012 RMK AO2 SLP185 T01670139 $

More Conditions Fewer Conditions

Presión 30.08 pul
Visibilidad 10.0 Millas
Nubes Despejado
Punto de rocío 57 ° F
Humedad 94%
Precipitaciones 0.00 pul
Espesor de la nieve No disponible.
UV 0 de una escala de 12
Polen 5.70 de una escala de 12
Ozono Buena
PM2.5 Moderada
Flu Activity Sporadic
METAR KSAT 240951Z 30003KT 10SM CLR 17/14 A3012 RMK AO2 SLP185 T01670139 $

More Conditions Fewer Conditions

10-Day Weather Forecast

Almanac

Astronomía

Oct. 24, 2014 Salida Puesta
Hora real 7:41 AM CDT 6:54 PM CDT
Crepúsculo civil 7:17 AM CDT 7:18 PM CDT
Crepúsculo náutico 6:49 AM CDT 7:46 PM CDT
Crepúsculo astronómico 6:21 AM CDT 8:14 PM CDT
Luna 8:19 AM CDT 7:39 PM CDT
Horas de luz 12h 01m
Horas de luz
11h 13m
Tomorrow will be 1m 36s shorter.
Luna nueva, 0% of the Moon is Illuminated
Hoy
Luna nueva
Oct 30
Cuarto creciente
Nov 6
Luna llena
Nov 14
Cuarto menguante
Nov 22
Nueva

Extremos de hoy

Máximos del estado Bajos del estado

Community

WunderPhotos

Upload Photos

1,764,513 ¡fotos cargadas!

WunderBlogs® & News

Nearby

Calidad del aire

  Calidad del aire Índice AQ Contaminante
Ayer Nociva para grupos sensibles
OZONE
Ayer Moderada
PM2.5
Real Moderada
PM2.5
Real Buena
OZONE
Viernes Moderada
OZONE
Viernes Buena
PM10
Sábado Moderada
OZONE
Sábado Buena
PM10
Domingo Moderada
OZONE
Domingo Buena
PM10

Grosos de nieve

Estación Profundido Altura
No tenemos constancia de nieve nueva.

Actividad de terremotos

Ciudad Distance Mag. Tiempo y dato
No hay informes recientes de la actividad sísmica.
Magnitud mínima muestra es 2,5.

Temperaturas de aguas costeras

Lugar Temperatura
Sin partes meteorológicos de las estaciones

Estaciones meteorológicas cercanas